Airfield :
LOGIN :

Register | Disclaimer

   EN    FR    IT 

 










Legend :    VFR   Marginal VFR   IFR   Intensive IFR   Very Intensive IFR
Visi :
Ceiling :
>= 8 km
>= 3000ft
5 to 8 km
1000 to 3000 ft
1500m to 5 km
500 to 1000 ft
800 to 1500m
200 to 500 ft
< 800m
< 200 ft
Symbols :   Thunderstorms  Fog  Heavy snow  Heavy precipitations  Wind > 20 kt
SIGMETs :     Misc.  Thunderstorms  Icing  Turbulence  Mountain Waves  Volcanic Ashes






- Airport Elevation : 50 ft
- IATA code : KOI


EGPA - Kirkwall

CURRENT METAR :
  • 221450Z 26013KT 9999 -DZ BKN003 BKN005 OVC007 09/09 Q1032

EXPIRED METARs :
  • 221420Z 26014KT 9999 -DZ BKN003 BKN005 OVC007 09/09 Q1032 REDZ
  • 221350Z 26015KT 5000 DZ BR BKN002 BKN004 OVC006 09/09 Q1032
  • 221320Z 26014KT 4000 DZ BR BKN002 BKN006 09/09 Q1032
  • 221250Z 26011KT 2500 -DZ BR SCT003 BKN006 09/09 Q1032
  • 221220Z 27013KT 2500 -DZ BR SCT003 BKN006 09/09 Q1032

TAF AMD TAF EGPA
Valid from the 22 at 15:00 until the 23 at 00:00 UTC


221457Z 2215/2224 25014KT 4000 DZ BR BKN003
TEMPO 2215/2218 9999 NSW SCT003 BKN007
PROB40
TEMPO 2215/2218 0300 FG VV///
BECMG 2218/2221 9999 NSW BKN012
TEMPO 2221/2224 24018G28KT



MET'MAP, your aeronautical weather chart ! - Copyright ORBIFLY December 2007 - Disclaimer

ORBIFLY MET'MAP TEAM :

Programming & Development : Alexandra Zaïnal
Concept & original design : Baudouin d'Aumeries
Assistance for programming : Marc-Olivier Méhu
Technical & hardware support : Manuel Goepfert

Contact : metmap@orbifly.com




SOURCES & CREDITS :

   NOAA